Time;durP1;ratioP1;P1;durP2;ratioP2;P2;SDS_P1;SDS_P2;PMS_P1;PMS_P2;Temp;Humidity;BMP_temperature;BMP_pressure;BME280_temperature;BME280_humidity;BME280_pressure;Samples;Min_cycle;Max_cycle;Signal;HPM_P1;HPM_P2
2023/05/30 00:07:25;;;;;;;13.60;3.10;;;;;;;14.91;47.24;99711.00;436789;1251;139904;-65
2023/05/30 00:17:32;;;;;;;4.90;3.10;;;;;;;14.68;47.90;99707.85;436369;1251;139687;-63
2023/05/30 00:27:38;;;;;;;5.10;2.90;;;;;;;14.50;48.43;99710.14;436392;1251;139323;-64
2023/05/30 00:37:44;;;;;;;3.80;2.90;;;;;;;14.38;49.03;99716.00;436639;1251;139498;-65
2023/05/30 00:47:53;;;;;;;6.00;3.50;;;;;;;14.27;49.71;99718.79;436822;1250;138970;-65
2023/05/30 00:57:59;;;;;;;4.90;3.30;;;;;;;14.14;50.26;99717.31;436728;1251;138989;-64
2023/05/30 01:08:07;;;;;;;8.40;3.80;;;;;;;14.03;50.88;99726.97;437857;1250;139523;-65
2023/05/30 01:18:20;;;;;;;4.50;3.20;;;;;;;13.91;51.39;99732.27;436856;1251;140347;-64
2023/05/30 01:28:28;;;;;;;6.70;3.70;;;;;;;13.74;52.17;99738.77;436061;1251;141024;-64
2023/05/30 01:38:37;;;;;;;7.20;3.90;;;;;;;13.56;52.79;99732.93;436104;1254;139210;-63
2023/05/30 01:48:50;;;;;;;8.50;3.80;;;;;;;13.32;53.68;99737.79;436822;1251;138910;-64
2023/05/30 01:58:57;;;;;;;5.20;3.70;;;;;;;13.04;54.23;99740.35;436382;1254;139928;-64
2023/05/30 02:09:03;;;;;;;5.40;3.40;;;;;;;12.77;54.90;99743.30;436721;1251;139723;-64
2023/05/30 02:19:11;;;;;;;3.50;3.00;;;;;;;12.52;55.45;99749.24;436359;1251;138840;-64
2023/05/30 02:29:17;;;;;;;15.10;4.00;;;;;;;12.31;56.00;99751.02;436579;1251;138387;-63
2023/05/30 02:39:22;;;;;;;5.30;2.60;;;;;;;12.16;56.44;99754.13;436113;1251;140209;-64
2023/05/30 02:49:30;;;;;;;6.40;3.70;;;;;;;12.05;56.73;99758.55;436264;1251;138380;-65
2023/05/30 02:59:36;;;;;;;6.20;2.20;;;;;;;12.08;56.79;99766.79;435984;1251;139022;-65
2023/05/30 03:09:42;;;;;;;5.90;2.60;;;;;;;12.85;56.64;99771.12;436605;1254;138341;-63
2023/05/30 03:19:48;;;;;;;8.50;2.50;;;;;;;14.98;53.99;99772.38;436116;1254;138486;-64
2023/05/30 03:29:55;;;;;;;5.30;2.20;;;;;;;15.33;51.10;99772.36;436172;1254;139157;-65
2023/05/30 03:40:03;;;;;;;8.20;2.70;;;;;;;14.71;51.14;99782.86;436147;1251;138786;-65
2023/05/30 03:50:10;;;;;;;7.40;2.30;;;;;;;14.56;50.89;99781.39;436499;1253;139807;-65
2023/05/30 04:00:18;;;;;;;2.60;2.10;;;;;;;14.83;50.78;99785.82;436860;1251;139894;-64
2023/05/30 04:10:23;;;;;;;5.40;2.00;;;;;;;19.97;47.07;99794.20;436720;1250;138515;-65
2023/05/30 04:20:30;;;;;;;5.50;2.50;;;;;;;25.74;39.88;99796.31;436196;1253;138990;-64
2023/05/30 04:30:36;;;;;;;6.40;2.60;;;;;;;29.31;34.58;99797.80;436168;1250;139503;-66
2023/05/30 04:40:41;;;;;;;3.30;2.30;;;;;;;31.98;30.16;99800.44;436159;1254;139007;-65
2023/05/30 04:50:47;;;;;;;6.50;2.20;;;;;;;35.01;26.43;99811.10;436589;1254;138581;-65
2023/05/30 05:00:53;;;;;;;4.00;2.20;;;;;;;37.55;23.39;99817.73;436442;1251;139072;-65
2023/05/30 05:10:59;;;;;;;4.30;1.90;;;;;;;35.94;22.26;99821.17;436821;1253;139697;-65
2023/05/30 05:21:06;;;;;;;3.30;2.10;;;;;;;38.23;21.21;99830.02;436992;1253;138631;-64
2023/05/30 05:31:12;;;;;;;4.60;1.60;;;;;;;40.32;18.96;99837.11;437081;1251;138517;-65
2023/05/30 05:41:18;;;;;;;4.20;2.70;;;;;;;41.11;18.02;99851.66;436749;1251;139076;-65
2023/05/30 05:51:24;;;;;;;5.80;2.10;;;;;;;42.09;17.06;99858.23;437582;1251;138595;-66
2023/05/30 06:01:31;;;;;;;5.30;2.60;;;;;;;44.24;15.74;99866.15;436996;1253;139423;-67
2023/05/30 06:11:37;;;;;;;3.20;2.20;;;;;;;45.88;14.53;99877.56;437346;1253;138773;-66
2023/05/30 06:21:42;;;;;;;3.90;1.70;;;;;;;46.31;13.59;99877.98;437300;1252;139199;-67
2023/05/30 06:31:48;;;;;;;7.70;2.10;;;;;;;46.33;12.97;99889.39;436936;1251;138966;-66
2023/05/30 06:42:00;;;;;;;8.10;2.60;;;;;;;47.09;12.74;99898.94;437095;1250;139967;-66
2023/05/30 06:52:07;;;;;;;7.20;2.10;;;;;;;47.25;12.29;99908.16;438067;1253;138785;-65
2023/05/30 07:02:13;;;;;;;6.20;1.60;;;;;;;47.43;11.81;99913.50;437235;1251;138632;-65
2023/05/30 07:12:19;;;;;;;2.30;1.40;;;;;;;47.65;11.46;99919.42;436779;1253;139733;-66
2023/05/30 07:22:24;;;;;;;7.00;2.40;;;;;;;48.61;11.15;99917.95;436772;1251;150147;-65
2023/05/30 07:32:30;;;;;;;5.20;2.20;;;;;;;47.35;10.85;99916.39;436646;1253;139339;-68
2023/05/30 07:42:37;;;;;;;2.50;1.70;;;;;;;46.44;11.16;99920.85;436762;1251;139070;-65
2023/05/30 07:52:43;;;;;;;7.90;1.70;;;;;;;45.86;11.08;99917.95;452681;1249;138309;-64
2023/05/30 08:02:49;;;;;;;8.20;1.60;;;;;;;36.83;13.78;99923.45;436888;1251;140330;-65
2023/05/30 08:12:55;;;;;;;4.00;1.40;;;;;;;31.04;17.56;99935.90;436642;1251;138460;-64
2023/05/30 08:23:01;;;;;;;4.50;1.40;;;;;;;28.56;19.71;99941.04;436852;1253;138617;-66
2023/05/30 08:33:09;;;;;;;6.20;1.80;;;;;;;26.72;21.58;99938.25;436926;1253;139324;-65
2023/05/30 08:43:15;;;;;;;3.00;1.30;;;;;;;25.75;23.08;99943.20;436696;1253;139320;-64
2023/05/30 08:53:31;;;;;;;4.50;1.70;;;;;;;24.66;24.43;99950.41;436922;1251;138650;-65
2023/05/30 09:03:38;;;;;;;5.30;2.10;;;;;;;24.13;25.40;99953.87;437144;1251;138951;-65
2023/05/30 09:13:44;;;;;;;3.80;2.30;;;;;;;23.82;26.09;99959.98;437468;1253;138913;-66
2023/05/30 09:23:50;;;;;;;10.70;2.70;;;;;;;23.38;26.92;99956.89;437361;1253;138765;-66
2023/05/30 09:33:57;;;;;;;9.10;2.00;;;;;;;23.30;27.45;99953.30;437190;1251;138544;-66
2023/05/30 09:44:07;;;;;;;5.50;2.30;;;;;;;22.82;27.90;99952.64;436969;1253;138921;-65
2023/05/30 09:54:15;;;;;;;29.30;4.20;;;;;;;22.92;28.10;99961.22;439956;1251;138700;-65
2023/05/30 10:04:22;;;;;;;3.30;1.70;;;;;;;22.86;28.27;99970.54;437250;1253;139004;-66
2023/05/30 10:14:28;;;;;;;8.50;2.10;;;;;;;22.71;28.45;99977.80;437156;1251;138409;-66
2023/05/30 10:24:34;;;;;;;5.60;1.60;;;;;;;22.25;29.19;99977.63;436977;1251;140400;-65
2023/05/30 10:34:53;;;;;;;4.90;1.80;;;;;;;21.93;30.13;99978.40;437050;1255;139936;-65
2023/05/30 10:45:11;;;;;;;4.80;1.90;;;;;;;21.46;30.78;99980.33;436731;1251;138736;-66
2023/05/30 10:55:17;;;;;;;5.10;1.70;;;;;;;21.63;30.46;99979.33;437913;1251;139373;-65
2023/05/30 11:05:27;;;;;;;3.30;1.90;;;;;;;21.29;31.14;99983.31;436492;1251;139022;-66
2023/05/30 11:15:36;;;;;;;2.20;1.40;;;;;;;21.19;31.15;99971.34;436854;1251;139453;-66
2023/05/30 11:25:42;;;;;;;6.10;2.10;;;;;;;21.32;30.99;99965.80;436851;1249;140783;-66
2023/05/30 11:35:49;;;;;;;4.20;1.80;;;;;;;21.00;30.82;99971.86;436866;1253;139933;-66
2023/05/30 11:45:56;;;;;;;7.00;1.90;;;;;;;20.78;31.34;99975.47;436375;1253;138735;-65
2023/05/30 11:56:02;;;;;;;8.20;1.60;;;;;;;20.88;31.17;99971.66;436950;1253;138716;-66
2023/05/30 12:06:14;;;;;;;7.10;2.20;;;;;;;20.53;31.64;99970.30;437002;1251;139987;-67
2023/05/30 12:16:20;;;;;;;3.60;1.50;;;;;;;20.29;31.58;99970.75;437171;1253;138524;-64
2023/05/30 12:26:26;;;;;;;10.80;2.80;;;;;;;20.21;30.84;99979.02;436947;1251;139098;-65
2023/05/30 12:36:33;;;;;;;;;;;;;;;20.16;31.02;99974.86;437003;1253;138772;-65
2023/05/30 12:46:39;;;;;;;4.50;1.40;;;;;;;19.99;31.20;99974.84;436817;1252;124985;-65
2023/05/30 12:56:45;;;;;;;2.70;1.50;;;;;;;20.01;31.06;99971.16;437177;1253;139253;-65
2023/05/30 13:06:52;;;;;;;2.30;1.90;;;;;;;20.01;30.29;99977.21;436912;1251;139094;-65
2023/05/30 13:16:57;;;;;;;13.00;2.00;;;;;;;20.00;30.21;99971.91;437231;1251;139493;-66
2023/05/30 13:27:04;;;;;;;3.70;1.60;;;;;;;20.22;30.24;99975.13;436990;1253;139183;-64
2023/05/30 13:37:10;;;;;;;4.80;1.60;;;;;;;20.16;30.12;99980.39;436690;1251;139384;-65
2023/05/30 13:47:15;;;;;;;7.90;2.80;;;;;;;19.97;29.78;99981.30;436380;1253;138833;-65
2023/05/30 13:57:21;;;;;;;4.40;1.40;;;;;;;19.95;30.43;99973.34;436736;1253;140030;-65
2023/05/30 14:07:29;;;;;;;3.30;1.70;;;;;;;19.90;29.82;99980.17;436650;1251;139757;-65
2023/05/30 14:17:35;;;;;;;6.60;1.30;;;;;;;19.82;29.04;99976.11;437396;1253;139051;-66
2023/05/30 14:27:42;;;;;;;3.20;1.40;;;;;;;19.86;28.78;99976.50;436739;1254;138434;-65
2023/05/30 14:37:48;;;;;;;4.70;1.60;;;;;;;19.84;28.51;99972.91;436726;1253;139255;-65
2023/05/30 14:47:55;;;;;;;4.00;1.80;;;;;;;19.90;28.98;99975.39;436369;1253;138617;-66
2023/05/30 14:58:02;;;;;;;5.00;2.00;;;;;;;19.78;29.22;99978.61;436741;1253;138264;-65
2023/05/30 15:08:08;;;;;;;2.50;1.40;;;;;;;19.69;29.69;99978.24;436929;1253;138988;-66
2023/05/30 15:18:14;;;;;;;4.60;1.70;;;;;;;19.69;29.67;99971.56;436779;1253;138675;-65
2023/05/30 15:28:20;;;;;;;2.30;1.50;;;;;;;19.73;29.58;99973.79;436914;1253;138370;-66
2023/05/30 15:38:27;;;;;;;3.70;1.60;;;;;;;19.70;29.59;99963.44;436703;1250;138629;-66
2023/05/30 15:48:33;;;;;;;5.10;1.60;;;;;;;19.72;29.81;99962.68;436686;1251;139627;-68
2023/05/30 15:58:38;;;;;;;3.70;1.00;;;;;;;19.72;29.61;99963.85;436917;1253;139807;-64
2023/05/30 16:08:44;;;;;;;5.30;2.10;;;;;;;19.64;29.71;99969.15;436847;1253;139780;-62
2023/05/30 16:18:50;;;;;;;3.60;2.30;;;;;;;19.62;29.90;99975.89;436592;1254;139061;-59
2023/05/30 16:28:56;;;;;;;4.80;1.40;;;;;;;19.56;29.90;99975.79;436702;1251;139048;-62
2023/05/30 16:39:03;;;;;;;4.60;1.60;;;;;;;19.45;30.15;99984.81;436738;1251;140053;-60
2023/05/30 16:49:10;;;;;;;3.50;1.30;;;;;;;19.42;30.65;99986.30;436884;1250;139478;-62
2023/05/30 16:59:16;;;;;;;2.10;1.50;;;;;;;19.32;30.94;99996.48;436567;1253;138680;-63
2023/05/30 17:09:21;;;;;;;5.10;2.00;;;;;;;19.18;31.44;100008.15;436760;1254;139439;-60
2023/05/30 17:19:28;;;;;;;4.70;1.90;;;;;;;19.07;31.79;100013.19;436632;1253;139045;-60
2023/05/30 17:29:35;;;;;;;2.00;1.20;;;;;;;19.01;31.94;100028.60;436692;1253;139258;-61
2023/05/30 17:39:41;;;;;;;2.70;1.30;;;;;;;18.80;31.70;100031.05;436736;1254;138672;-61
2023/05/30 17:49:47;;;;;;;2.50;1.00;;;;;;;18.60;31.92;100032.89;437315;1252;141066;-60
2023/05/30 17:59:53;;;;;;;1.50;1.10;;;;;;;18.34;32.33;100031.45;436593;1254;138829;-60
2023/05/30 18:09:59;;;;;;;4.30;1.30;;;;;;;18.08;32.85;100035.17;436707;1253;138786;-61
2023/05/30 18:20:06;;;;;;;3.80;1.30;;;;;;;17.90;33.03;100035.52;436729;1253;140820;-62
2023/05/30 18:30:13;;;;;;;3.10;0.90;;;;;;;17.63;33.68;100039.45;437490;1253;140180;-60
2023/05/30 18:40:19;;;;;;;2.10;1.50;;;;;;;17.28;34.43;100053.34;437060;1251;138613;-63
2023/05/30 18:50:25;;;;;;;4.90;2.50;;;;;;;16.94;35.08;100057.55;436523;1250;140323;-61
2023/05/30 19:00:30;;;;;;;1.20;1.10;;;;;;;16.70;35.74;100068.72;436549;1251;140312;-60
2023/05/30 19:10:38;;;;;;;4.20;1.80;;;;;;;16.49;36.38;100075.52;436831;1251;138880;-62
2023/05/30 19:20:44;;;;;;;5.50;2.30;;;;;;;16.29;37.04;100089.54;436507;1251;138524;-61
2023/05/30 19:30:50;;;;;;;2.60;1.20;;;;;;;16.11;37.52;100102.42;436619;1250;139166;-61
2023/05/30 19:40:56;;;;;;;4.20;2.30;;;;;;;15.94;38.13;100105.17;436658;1251;138716;-61
2023/05/30 19:51:02;;;;;;;6.30;1.30;;;;;;;15.69;38.75;100105.93;437036;1253;139757;-61
2023/05/30 20:01:08;;;;;;;4.60;1.30;;;;;;;15.53;39.31;100113.88;436987;1251;138635;-60
2023/05/30 20:11:14;;;;;;;8.30;7.50;;;;;;;15.38;39.97;100122.09;436892;1254;139308;-62
2023/05/30 20:21:21;;;;;;;1.90;1.30;;;;;;;15.18;40.51;100126.02;436959;1251;141797;-61
2023/05/30 20:31:27;;;;;;;2.00;1.40;;;;;;;15.04;41.06;100129.90;436920;1252;139030;-61
2023/05/30 20:41:33;;;;;;;5.00;1.50;;;;;;;14.86;41.65;100131.93;436762;1251;140077;-61
2023/05/30 20:51:39;;;;;;;3.20;1.30;;;;;;;14.67;42.23;100139.63;437121;1252;138419;-61
2023/05/30 21:01:46;;;;;;;2.90;1.30;;;;;;;14.53;42.65;100147.81;436703;1251;138635;-60
2023/05/30 21:11:52;;;;;;;2.10;1.40;;;;;;;14.40;42.96;100150.83;436881;1254;139049;-60
2023/05/30 21:21:58;;;;;;;5.10;1.20;;;;;;;14.25;43.40;100146.23;436559;1251;139073;-60
2023/05/30 21:32:04;;;;;;;4.30;1.30;;;;;;;14.14;43.73;100161.10;436339;1251;139001;-60
2023/05/30 21:42:10;;;;;;;3.30;1.20;;;;;;;13.97;44.33;100173.71;436701;1253;138800;-60
2023/05/30 21:52:17;;;;;;;2.90;1.80;;;;;;;13.79;44.82;100183.55;436770;1251;138542;-61
2023/05/30 22:02:22;;;;;;;2.00;0.90;;;;;;;13.71;45.16;100189.21;436809;1253;139496;-61
2023/05/30 22:12:28;;;;;;;4.50;1.30;;;;;;;13.72;45.40;100191.08;436506;1251;139353;-63
2023/05/30 22:22:34;;;;;;;3.10;1.40;;;;;;;13.72;45.39;100195.48;436871;1251;139007;-61
2023/05/30 22:32:40;;;;;;;3.40;1.50;;;;;;;13.75;45.47;100198.25;436581;1250;138980;-61
2023/05/30 22:42:46;;;;;;;2.90;1.30;;;;;;;13.73;45.53;100201.22;437195;1253;138555;-59
2023/05/30 22:52:52;;;;;;;5.30;1.40;;;;;;;13.70;45.53;100195.23;436663;1251;138951;-60
2023/05/30 23:02:58;;;;;;;4.70;1.70;;;;;;;13.64;45.69;100191.30;436513;1251;139054;-60
2023/05/30 23:13:04;;;;;;;1.80;1.00;;;;;;;13.54;45.66;100189.63;436640;1251;138751;-60
2023/05/30 23:23:11;;;;;;;1.80;0.90;;;;;;;13.40;45.78;100187.90;436451;1251;139773;-60
2023/05/30 23:33:17;;;;;;;2.60;1.00;;;;;;;13.26;46.04;100197.76;436697;1253;138529;-60
2023/05/30 23:43:22;;;;;;;4.00;1.60;;;;;;;13.13;46.34;100199.33;436473;1254;138733;-60
2023/05/30 23:53:28;;;;;;;2.80;0.90;;;;;;;12.88;46.84;100202.63;436366;1251;138681;-59
